Tecuci, Romania

6:37 AM EEST on September 01, 2016 (GMT +0300)
Bacau | | Change Station

Elev 607 ft 46.52 °N, 26.91 °E | Updated 7 minutes ago

Clear
Clear
54 °F
Feels Like 54 °F
N
2
Wind Variable Wind from North

Today
High -- | Low -- °F
--% Chance of Precip.
Yesterday
High -- | Low -- °F
Precip. -- in
Pressure 30.24 in
Visibility -9999.0 miles
Clouds
Dew Point 52 °F
Humidity 94%
Rainfall 0.00 in
Snow Depth Not available.
6:31 AM 7:48 PM
Waning Crescent, 0% visible
METAR LRBC 010330Z 01002KT CAVOK 12/11 Q1024
Pressure 30.24 in
Visibility -9999.0 miles
Clouds
Dew Point 52 °F
Humidity 94%
Rainfall 0.00 in
Snow Depth Not available.
6:31 AM 7:48 PM
Waning Crescent, 0% visible
METAR LRBC 010330Z 01002KT CAVOK 12/11 Q1024

10-Day Weather Forecast

×

Almanac

Astronomy

Sep. 01, 2016 Rise Set
Actual Time
Civil Twilight
Nautical Twilight
Astronomical Twilight
Moon
Length of Visible Light
Length of Day
Tomorrow will be .
, % of the Moon is Illuminated

Today's Extremes

Country Highs Country Lows

Community

WunderPhotos

Upload Photos

1,936,289 photos uploaded!

WunderBlog® & News

Nearby

Air Quality

  Air Quality AQ Index Pollutant
Not available.

Snow Depth

Station Depth Elevation

Earthquake Activity

City Distance Mag. Time & Date
Minimum magnitude displayed is 2.5.

Coastal Water Temperatures

Place Temperature

Stations

Nearby Weather Stations

Station Location Temp. Windchill Dew Point Humidity Wind Precip. Elev Updated Type